^^
Station Historical Data
 
Daily Summary for September 21, 2017 Units:  English    Metric   Both
« Previous Day
Next Day »
Daily Weekly Monthly Yearly Custom
  Current: High: Low: Average:
Temperature: 81.0 °F 81.9 °F 58.8 °F 66.2 °F
Dew Point: 65.3 °F 69.1 °F 58.3 °F 62.3 °F
Humidity: 59% 98% 59% 89%
Wind Speed: 2.0mph 9.0mph 0.0mph 1.1mph
Wind Gust: 10.0mph 11.0mph - -
WindNE - - SSW
Pressure: 30.01 in 30.04 in 29.97 in -
Precipitation: 0.00 in      
Historical Graphs
 
 
Tabular Data for September 21, 2017
Time Temperature Dew Point Pressure Wind Wind Speed Wind Gust Humidity Rainfall Rate (Hourly) solar Conditions
00:04 63.1 °F 62.2 °F 29.97 in Calm     97% 0.00 in meteobridge W/m2
00:09 63.0 °F 61.9 °F 29.97 in Calm     96% 0.00 in meteobridge W/m2
00:19 62.8 °F 61.7 °F 29.97 in Calm     96% 0.00 in meteobridge W/m2
00:24 62.8 °F 61.9 °F 29.97 in Calm     97% 0.00 in meteobridge W/m2
00:29 62.8 °F 61.9 °F 29.97 in Calm     97% 0.00 in meteobridge W/m2
00:34 62.4 °F 61.5 °F 29.97 in Calm     97% 0.00 in meteobridge W/m2
00:39 62.4 °F 61.5 °F 29.97 in Calm     97% 0.00 in meteobridge W/m2
00:44 62.2 °F 61.3 °F 29.97 in Calm     97% 0.00 in meteobridge W/m2
00:49 62.2 °F 61.3 °F 29.97 in Calm     97% 0.00 in meteobridge W/m2
00:54 62.1 °F 61.2 °F 29.97 in Calm     97% 0.00 in meteobridge W/m2
00:59 62.1 °F 61.2 °F 29.97 in Calm     97% 0.00 in meteobridge W/m2
01:04 62.1 °F 61.2 °F 29.97 in Calm     97% 0.00 in meteobridge W/m2
01:09 62.1 °F 61.2 °F 29.97 in Calm     97% 0.00 in meteobridge W/m2
01:15 61.9 °F 61.0 °F 29.97 in Calm     97% 0.00 in meteobridge W/m2
01:20 61.7 °F 60.8 °F 29.97 in Calm     97% 0.00 in meteobridge W/m2
01:25 61.5 °F 60.6 °F 29.97 in Calm     97% 0.00 in meteobridge W/m2
01:30 61.7 °F 60.8 °F 29.97 in Calm     97% 0.00 in meteobridge W/m2
01:35 61.5 °F 60.6 °F 29.98 in Calm     97% 0.00 in meteobridge W/m2
01:40 61.5 °F 60.6 °F 29.98 in Calm     97% 0.00 in meteobridge W/m2
01:45 61.5 °F 60.6 °F 29.98 in Calm     97% 0.00 in meteobridge W/m2
01:50 61.5 °F 60.6 °F 29.98 in Calm     97% 0.00 in meteobridge W/m2
01:55 61.3 °F 60.4 °F 29.98 in Calm     97% 0.00 in meteobridge W/m2
02:00 61.3 °F 60.4 °F 29.98 in Calm     97% 0.00 in meteobridge W/m2
02:05 61.2 °F 60.3 °F 29.98 in Calm     97% 0.00 in meteobridge W/m2
02:10 61.2 °F 60.3 °F 29.98 in Calm     97% 0.00 in meteobridge W/m2
02:15 61.0 °F 60.1 °F 29.98 in Calm     97% 0.00 in meteobridge W/m2
02:20 61.0 °F 60.1 °F 29.98 in Calm     97% 0.00 in meteobridge W/m2
02:25 61.0 °F 60.1 °F 29.98 in Calm     97% 0.00 in meteobridge W/m2
02:30 60.8 °F 59.9 °F 29.98 in Calm     97% 0.00 in meteobridge W/m2
02:35 60.8 °F 59.9 °F 29.98 in Calm     97% 0.00 in meteobridge W/m2
02:40 60.6 °F 59.7 °F 29.98 in Calm     97% 0.00 in meteobridge W/m2
02:46 60.6 °F 59.7 °F 29.98 in Calm     97% 0.00 in meteobridge W/m2
02:51 60.4 °F 59.5 °F 29.98 in Calm     97% 0.00 in meteobridge W/m2
02:56 60.4 °F 59.5 °F 29.98 in Calm     97% 0.00 in meteobridge W/m2
03:01 60.4 °F 59.5 °F 29.98 in Calm     97% 0.00 in meteobridge W/m2
03:06 60.3 °F 59.4 °F 29.97 in Calm     97% 0.00 in meteobridge W/m2
03:11 60.3 °F 59.4 °F 29.97 in Calm     97% 0.00 in meteobridge W/m2
03:16 60.3 °F 59.4 °F 29.97 in Calm     97% 0.00 in meteobridge W/m2
03:21 60.3 °F 59.4 °F 29.97 in Calm     97% 0.00 in meteobridge W/m2
03:26 60.1 °F 59.2 °F 29.98 in Calm     97% 0.00 in meteobridge W/m2
03:31 60.1 °F 59.2 °F 29.98 in Calm     97% 0.00 in meteobridge W/m2
03:36 59.9 °F 59.0 °F 29.98 in Calm     97% 0.00 in meteobridge W/m2
03:41 59.7 °F 58.8 °F 29.98 in Calm     97% 0.00 in meteobridge W/m2
03:46 59.7 °F 58.8 °F 29.98 in Calm     97% 0.00 in meteobridge W/m2
03:51 59.9 °F 59.0 °F 29.98 in Calm     97% 0.00 in meteobridge W/m2
03:52 59.9 °F 59.0 °F 29.98 in Calm     97% 0.00 in meteobridge W/m2
03:57 59.9 °F 59.0 °F 29.98 in Calm     97% 0.00 in meteobridge W/m2
04:02 59.9 °F 59.0 °F 29.98 in Calm     97% 0.00 in meteobridge W/m2
04:07 59.9 °F 59.0 °F 29.98 in Calm     97% 0.00 in meteobridge W/m2
04:12 59.9 °F 59.0 °F 29.98 in Calm     97% 0.00 in meteobridge W/m2
04:17 60.1 °F 59.2 °F 29.98 in Calm     97% 0.00 in meteobridge W/m2
04:22 60.1 °F 59.2 °F 29.98 in Calm     97% 0.00 in meteobridge W/m2
04:27 59.9 °F 59.0 °F 29.99 in Calm     97% 0.00 in meteobridge W/m2
04:32 59.7 °F 58.8 °F 29.99 in Calm     97% 0.00 in meteobridge W/m2
04:37 59.7 °F 58.8 °F 29.99 in Calm     97% 0.00 in meteobridge W/m2
04:42 59.7 °F 58.8 °F 29.99 in Calm     97% 0.00 in meteobridge W/m2
04:47 59.7 °F 58.8 °F 29.99 in Calm     97% 0.00 in meteobridge W/m2
04:52 59.7 °F 58.8 °F 29.99 in Calm     97% 0.00 in meteobridge W/m2
04:57 59.9 °F 59.0 °F 30.00 in Calm     97% 0.00 in meteobridge W/m2
05:02 59.7 °F 58.8 °F 30.00 in Calm     97% 0.00 in meteobridge W/m2
05:07 59.7 °F 58.8 °F 30.00 in Calm     97% 0.00 in meteobridge W/m2
05:12 59.7 °F 58.8 °F 30.00 in Calm     97% 0.00 in meteobridge W/m2
05:17 59.7 °F 58.8 °F 30.00 in Calm     97% 0.00 in meteobridge W/m2
05:22 59.5 °F 58.6 °F 30.01 in Calm     97% 0.00 in meteobridge W/m2
05:27 59.5 °F 58.6 °F 30.01 in Calm     97% 0.00 in meteobridge W/m2
05:33 59.5 °F 58.6 °F 30.01 in Calm     97% 0.00 in meteobridge W/m2
05:38 59.5 °F 58.6 °F 30.01 in Calm     97% 0.00 in meteobridge W/m2
05:43 59.4 °F 58.5 °F 30.01 in Calm     97% 0.00 in meteobridge W/m2
05:48 59.4 °F 58.5 °F 30.01 in Calm     97% 0.00 in meteobridge W/m2
05:53 59.4 °F 58.5 °F 30.02 in Calm     97% 0.00 in meteobridge W/m2
05:58 59.4 °F 58.5 °F 30.02 in Calm     97% 0.00 in meteobridge W/m2
06:03 59.4 °F 58.5 °F 30.02 in Calm     97% 0.00 in meteobridge W/m2
06:05 59.2 °F 58.3 °F 30.02 in Calm     97% 0.00 in meteobridge W/m2
06:10 59.2 °F 58.6 °F 30.03 in Calm     98% 0.00 in meteobridge W/m2
06:15 59.2 °F 58.6 °F 30.03 in Calm     98% 0.00 in meteobridge W/m2
06:20 59.0 °F 58.5 °F 30.03 in Calm     98% 0.00 in meteobridge W/m2
06:25 59.0 °F 58.5 °F 30.03 in Calm     98% 0.00 in meteobridge W/m2
06:30 59.0 °F 58.5 °F 30.03 in Calm     98% 0.00 in meteobridge W/m2
06:37 59.0 °F 58.5 °F 30.03 in Calm     98% 0.00 in meteobridge W/m2
06:42 58.8 °F 58.3 °F 30.03 in Calm     98% 0.00 in meteobridge W/m2
06:47 59.0 °F 58.5 °F 30.03 in Calm     98% 0.00 in meteobridge W/m2
06:52 59.2 °F 58.6 °F 30.03 in Calm     98% 0.00 in meteobridge W/m2
06:57 59.2 °F 58.6 °F 30.03 in Calm     98% 0.00 in meteobridge W/m2
07:02 59.2 °F 58.6 °F 30.04 in Calm     98% 0.00 in meteobridge W/m2
07:07 59.2 °F 58.6 °F 30.04 in Calm     98% 0.00 in meteobridge W/m2
07:12 59.5 °F 59.0 °F 30.04 in Calm     98% 0.00 in meteobridge W/m2
07:17 59.7 °F 59.2 °F 30.04 in Calm     98% 0.00 in meteobridge W/m2
07:22 59.7 °F 59.2 °F 30.04 in Calm     98% 0.00 in meteobridge W/m2
07:28 60.1 °F 59.5 °F 30.04 in Calm     98% 0.00 in meteobridge W/m2
07:32 60.3 °F 59.7 °F 30.04 in Calm     98% 0.00 in meteobridge W/m2
07:37 60.4 °F 59.9 °F 30.04 in Calm     98% 0.00 in meteobridge W/m2
07:43 61.0 °F 60.4 °F 30.04 in Calm     98% 0.00 in meteobridge W/m2
07:48 61.2 °F 60.6 °F 30.04 in Calm     98% 0.00 in meteobridge W/m2
07:53 61.5 °F 61.0 °F 30.04 in Calm     98% 0.00 in meteobridge W/m2
07:58 61.9 °F 61.3 °F 30.04 in Calm     98% 0.00 in meteobridge W/m2
08:03 62.4 °F 61.9 °F 30.04 in Calm     98% 0.00 in meteobridge W/m2
08:08 63.0 °F 62.4 °F 30.04 in Calm     98% 0.00 in meteobridge W/m2
08:13 63.3 °F 62.4 °F 30.04 in Calm     97% 0.00 in meteobridge W/m2
08:18 64.0 °F 63.1 °F 30.04 in Calm     97% 0.00 in meteobridge W/m2
08:23 64.8 °F 63.7 °F 30.04 in Calm     96% 0.00 in meteobridge W/m2
08:28 65.1 °F 63.7 °F 30.04 in Calm     95% 0.00 in meteobridge W/m2
08:33 65.7 °F 63.9 °F 30.04 in Calm     94% 0.00 in meteobridge W/m2
08:38 66.0 °F 63.9 °F 30.04 in Calm     93% 0.00 in meteobridge W/m2
08:43 66.7 °F 64.6 °F 30.04 in Calm     93% 0.00 in meteobridge W/m2
08:48 67.5 °F 65.1 °F 30.04 in Calm     92% 0.00 in meteobridge W/m2
08:53 68.0 °F 65.3 °F 30.04 in WNW 2.0 mph 4.0 mph 91% 0.00 in meteobridge W/m2
08:58 68.7 °F 64.9 °F 30.04 in North 2.0 mph 5.0 mph 88% 0.00 in meteobridge W/m2
09:03 69.1 °F 65.1 °F 30.04 in Calm   5.0 mph 87% 0.00 in meteobridge W/m2
09:08 69.4 °F 65.1 °F 30.04 in Calm   2.0 mph 86% 0.00 in meteobridge W/m2
09:13 70.0 °F 65.3 °F 30.04 in NNW 2.9 mph 6.0 mph 85% 0.00 in meteobridge W/m2
09:18 70.7 °F 65.7 °F 30.04 in NNW 2.0 mph 6.0 mph 84% 0.00 in meteobridge W/m2
09:23 71.2 °F 65.5 °F 30.04 in NW 2.0 mph 3.0 mph 82% 0.00 in meteobridge W/m2
09:28 71.8 °F 66.0 °F 30.04 in North 2.9 mph 3.0 mph 82% 0.00 in meteobridge W/m2
09:33 72.3 °F 66.2 °F 30.04 in North 0.9 mph 4.0 mph 81% 0.00 in meteobridge W/m2
09:38 72.3 °F 65.8 °F 30.04 in West 2.0 mph 3.0 mph 80% 0.00 in meteobridge W/m2
09:43 72.9 °F 66.7 °F 30.04 in NNW 2.0 mph 2.0 mph 81% 0.00 in meteobridge W/m2
09:48 73.8 °F 66.4 °F 30.04 in NW 2.0 mph 4.0 mph 78% 0.00 in meteobridge W/m2
09:53 74.1 °F 67.1 °F 30.04 in North 2.9 mph 4.0 mph 79% 0.00 in meteobridge W/m2
09:58 74.5 °F 66.7 °F 30.04 in NW 2.9 mph 4.0 mph 77% 0.00 in meteobridge W/m2
10:04 74.8 °F 66.7 °F 30.04 in North 2.9 mph 5.0 mph 76% 0.00 in meteobridge W/m2
10:09 75.2 °F 67.5 °F 30.04 in North 0.9 mph 5.0 mph 77% 0.00 in meteobridge W/m2
10:14 74.8 °F 66.0 °F 30.04 in North 4.0 mph 4.0 mph 74% 0.00 in meteobridge W/m2
10:19 75.2 °F 67.1 °F 30.04 in NNE 4.0 mph 5.0 mph 76% 0.00 in meteobridge W/m2
10:24 75.2 °F 66.7 °F 30.03 in North 4.9 mph 5.0 mph 75% 0.00 in meteobridge W/m2
10:29 75.6 °F 67.8 °F 30.04 in NNE 2.9 mph 6.0 mph 77% 0.00 in meteobridge W/m2
10:34 75.7 °F 67.3 °F 30.04 in NNE 2.0 mph 4.0 mph 75% 0.00 in meteobridge W/m2
10:39 75.7 °F 66.4 °F 30.04 in NNW 2.9 mph 4.0 mph 73% 0.00 in meteobridge W/m2
10:44 76.1 °F 67.6 °F 30.04 in NNE 2.0 mph 5.0 mph 75% 0.00 in meteobridge W/m2
10:49 76.6 °F 68.5 °F 30.03 in NNW 2.0 mph 3.0 mph 76% 0.00 in meteobridge W/m2
10:55 76.6 °F 66.9 °F 30.03 in Calm   4.0 mph 72% 0.00 in meteobridge W/m2
11:00 77.5 °F 68.2 °F 30.03 in NNE 2.9 mph 4.0 mph 73% 0.00 in meteobridge W/m2
11:05 77.4 °F 67.3 °F 30.03 in NNW 4.9 mph 6.0 mph 71% 0.00 in meteobridge W/m2
11:10 76.6 °F 66.9 °F 30.03 in Calm   3.0 mph 72% 0.00 in meteobridge W/m2
11:15 77.7 °F 69.1 °F 30.03 in NW 4.9 mph 9.0 mph 75% 0.00 in meteobridge W/m2
11:20 77.5 °F 66.9 °F 30.03 in NNW 4.0 mph 9.0 mph 70% 0.00 in meteobridge W/m2
11:25 77.7 °F 68.0 °F 30.03 in NNW 2.9 mph 5.0 mph 72% 0.00 in meteobridge W/m2
11:31 77.7 °F 66.7 °F 30.03 in NNW 2.9 mph 6.0 mph 69% 0.00 in meteobridge W/m2
11:36 78.3 °F 68.0 °F 30.03 in ENE 2.9 mph 5.0 mph 71% 0.00 in meteobridge W/m2
11:41 78.6 °F 67.6 °F 30.03 in WNW 2.0 mph 2.0 mph 69% 0.00 in meteobridge W/m2
11:46 79.0 °F 67.5 °F 30.03 in NE 0.9 mph 2.0 mph 68% 0.00 in meteobridge W/m2
11:51 78.4 °F 67.5 °F 30.03 in North 9.0 mph 9.0 mph 69% 0.00 in meteobridge W/m2
11:56 78.6 °F 67.1 °F 30.03 in NNE 6.9 mph 11.0 mph 68% 0.00 in meteobridge W/m2
12:01 79.0 °F 67.1 °F 30.03 in NNW 4.9 mph 9.0 mph 67% 0.00 in meteobridge W/m2
12:06 79.3 °F 66.9 °F 30.03 in North 6.9 mph 8.0 mph 66% 0.00 in meteobridge W/m2
12:11 79.5 °F 66.2 °F 30.03 in NW 4.0 mph 9.0 mph 64% 0.00 in meteobridge W/m2
12:16 79.5 °F 65.8 °F 30.03 in NNW 6.0 mph 10.0 mph 63% 0.00 in meteobridge W/m2
12:21 79.3 °F 65.7 °F 30.03 in NE 2.0 mph 5.0 mph 63% 0.00 in meteobridge W/m2
12:26 79.3 °F 66.0 °F 30.02 in NNW 4.0 mph 9.0 mph 64% 0.00 in meteobridge W/m2
12:31 79.5 °F 66.2 °F 30.02 in North 4.9 mph 8.0 mph 64% 0.00 in meteobridge W/m2
12:36 79.7 °F 66.4 °F 30.02 in NNE 2.9 mph 9.0 mph 64% 0.00 in meteobridge W/m2
12:41 80.1 °F 66.4 °F 30.02 in NNE 4.9 mph 11.0 mph 63% 0.00 in meteobridge W/m2
12:46 80.6 °F 68.2 °F 30.02 in North 2.9 mph 5.0 mph 66% 0.00 in meteobridge W/m2
12:51 81.1 °F 67.8 °F 30.02 in NNE 4.9 mph 6.0 mph 64% 0.00 in meteobridge W/m2
12:56 80.1 °F 66.7 °F 30.02 in North 0.9 mph 4.0 mph 64% 0.00 in meteobridge W/m2
13:01 80.1 °F 66.7 °F 30.02 in NNW 4.9 mph 10.0 mph 64% 0.00 in meteobridge W/m2
13:07 80.1 °F 68.2 °F 30.02 in North 6.0 mph 6.0 mph 67% 0.00 in meteobridge W/m2
13:12 80.4 °F 65.7 °F 30.01 in NNE 2.0 mph 8.0 mph 61% 0.00 in meteobridge W/m2
13:17 81.9 °F 66.2 °F 30.01 in NW 4.9 mph 10.0 mph 59% 0.00 in meteobridge W/m2
13:22 81.9 °F 67.1 °F 30.01 in North 4.0 mph 8.0 mph 61% 0.00 in meteobridge W/m2
13:27 81.0 °F 65.3 °F 30.01 in NE 2.0 mph 10.0 mph 59% 0.00 in meteobridge W/m2
Atglen Borough, Pennsylvania, USA
Compliments of Weather Underground - 1.75 mb